sensor_id;sensor_type;location;lat;lon;timestamp;pressure;altitude;pressure_sealevel;temperature;humidity
10014;BME280;45684;48.358;10.746;2023-03-20T00:00:48;96370.03;;;10.66;100.00
10014;BME280;45684;48.358;10.746;2023-03-20T00:03:17;96370.69;;;10.63;100.00
10014;BME280;45684;48.358;10.746;2023-03-20T00:05:44;96370.69;;;10.63;100.00
10014;BME280;45684;48.358;10.746;2023-03-20T00:08:12;96368.13;;;10.67;100.00
10014;BME280;45684;48.358;10.746;2023-03-20T00:10:43;96365.56;;;10.62;100.00
10014;BME280;45684;48.358;10.746;2023-03-20T00:13:14;96376.09;;;10.63;100.00
10014;BME280;45684;48.358;10.746;2023-03-20T00:15:45;96371.94;;;10.66;100.00
10014;BME280;45684;48.358;10.746;2023-03-20T00:18:14;96376.69;;;10.60;100.00
10014;BME280;45684;48.358;10.746;2023-03-20T00:20:44;96367.97;;;10.63;100.00
10014;BME280;45684;48.358;10.746;2023-03-20T00:23:13;96367.59;;;10.56;100.00
10014;BME280;45684;48.358;10.746;2023-03-20T00:25:42;96367.59;;;10.56;100.00
10014;BME280;45684;48.358;10.746;2023-03-20T00:28:34;96361.84;;;10.49;100.00
10014;BME280;45684;48.358;10.746;2023-03-20T00:31:14;96371.69;;;10.45;100.00
10014;BME280;45684;48.358;10.746;2023-03-20T00:33:45;96372.19;;;10.47;100.00
10014;BME280;45684;48.358;10.746;2023-03-20T00:36:13;96367.75;;;10.51;100.00
10014;BME280;45684;48.358;10.746;2023-03-20T00:38:40;96377.59;;;10.47;100.00
10014;BME280;45684;48.358;10.746;2023-03-20T00:41:20;96380.28;;;10.47;100.00
10014;BME280;45684;48.358;10.746;2023-03-20T00:43:51;96369.00;;;10.45;100.00
10014;BME280;45684;48.358;10.746;2023-03-20T00:46:21;96377.09;;;10.45;100.00
10014;BME280;45684;48.358;10.746;2023-03-20T00:48:50;96372.84;;;10.53;100.00
10014;BME280;45684;48.358;10.746;2023-03-20T00:51:18;96375.06;;;10.51;100.00
10014;BME280;45684;48.358;10.746;2023-03-20T00:53:46;96372.03;;;10.52;100.00
10014;BME280;45684;48.358;10.746;2023-03-20T00:56:31;96380.75;;;10.49;100.00
10014;BME280;45684;48.358;10.746;2023-03-20T00:59:00;96374.53;;;10.40;100.00
10014;BME280;45684;48.358;10.746;2023-03-20T01:01:31;96369.16;;;10.48;100.00
10014;BME280;45684;48.358;10.746;2023-03-20T01:03:58;96370.25;;;10.47;100.00
10014;BME280;45684;48.358;10.746;2023-03-20T01:06:27;96374.69;;;10.43;100.00
10014;BME280;45684;48.358;10.746;2023-03-20T01:08:56;96372.31;;;10.42;100.00
10014;BME280;45684;48.358;10.746;2023-03-20T01:11:24;96364.81;;;10.39;100.00
10014;BME280;45684;48.358;10.746;2023-03-20T01:13:52;96365.59;;;10.39;100.00
10014;BME280;45684;48.358;10.746;2023-03-20T01:16:22;96362.09;;;10.39;100.00
10014;BME280;45684;48.358;10.746;2023-03-20T01:18:52;96372.13;;;10.38;100.00
10014;BME280;45684;48.358;10.746;2023-03-20T01:21:20;96368.75;;;10.33;100.00
10014;BME280;45684;48.358;10.746;2023-03-20T01:23:48;96365.31;;;10.41;100.00
10014;BME280;45684;48.358;10.746;2023-03-20T01:26:23;96362.28;;;10.42;100.00
10014;BME280;45684;48.358;10.746;2023-03-20T01:28:53;96362.44;;;10.37;100.00
10014;BME280;45684;48.358;10.746;2023-03-20T01:31:22;96359.53;;;10.34;100.00
10014;BME280;45684;48.358;10.746;2023-03-20T01:33:52;96358.75;;;10.33;100.00
10014;BME280;45684;48.358;10.746;2023-03-20T01:36:21;96357.56;;;10.26;100.00
10014;BME280;45684;48.358;10.746;2023-03-20T01:38:53;96360.28;;;10.26;100.00
10014;BME280;45684;48.358;10.746;2023-03-20T01:41:23;96357.88;;;10.24;100.00
10014;BME280;45684;48.358;10.746;2023-03-20T01:43:52;96359.53;;;10.11;100.00
10014;BME280;45684;48.358;10.746;2023-03-20T01:46:23;96358.44;;;10.12;100.00
10014;BME280;45684;48.358;10.746;2023-03-20T01:49:06;96353.31;;;10.11;100.00
10014;BME280;45684;48.358;10.746;2023-03-20T01:51:35;96352.06;;;10.08;100.00
10014;BME280;45684;48.358;10.746;2023-03-20T01:54:13;96346.13;;;10.06;100.00
10014;BME280;45684;48.358;10.746;2023-03-20T01:57:02;96349.09;;;9.96;100.00
10014;BME280;45684;48.358;10.746;2023-03-20T01:59:34;96356.28;;;10.01;100.00
10014;BME280;45684;48.358;10.746;2023-03-20T02:02:04;96357.88;;;10.02;100.00
10014;BME280;45684;48.358;10.746;2023-03-20T02:04:36;96349.47;;;10.03;100.00
10014;BME280;45684;48.358;10.746;2023-03-20T02:07:09;96353.38;;;9.97;100.00
10014;BME280;45684;48.358;10.746;2023-03-20T02:09:45;96355.28;;;9.96;100.00
10014;BME280;45684;48.358;10.746;2023-03-20T02:12:19;96350.69;;;9.97;100.00
10014;BME280;45684;48.358;10.746;2023-03-20T02:14:48;96355.69;;;10.04;100.00
10014;BME280;45684;48.358;10.746;2023-03-20T02:17:39;96360.28;;;10.03;100.00
10014;BME280;45684;48.358;10.746;2023-03-20T02:20:15;96357.25;;;10.05;100.00
10014;BME280;45684;48.358;10.746;2023-03-20T02:23:08;96359.84;;;10.10;100.00
10014;BME280;45684;48.358;10.746;2023-03-20T02:29:14;96366.03;;;10.10;100.00
10014;BME280;45684;48.358;10.746;2023-03-20T02:35:29;96374.16;;;10.10;100.00
10014;BME280;45684;48.358;10.746;2023-03-20T02:41:14;96371.38;;;10.02;100.00
10014;BME280;45684;48.358;10.746;2023-03-20T02:43:47;96372.50;;;10.01;100.00
10014;BME280;45684;48.358;10.746;2023-03-20T02:46:27;96387.22;;;9.94;100.00
10014;BME280;45684;48.358;10.746;2023-03-20T02:49:02;96383.75;;;9.94;100.00
10014;BME280;45684;48.358;10.746;2023-03-20T02:51:38;96387.72;;;9.96;100.00
10014;BME280;45684;48.358;10.746;2023-03-20T02:54:12;96378.22;;;9.99;100.00
10014;BME280;45684;48.358;10.746;2023-03-20T02:56:55;96383.09;;;9.97;100.00
10014;BME280;45684;48.358;10.746;2023-03-20T02:59:30;96388.16;;;9.90;100.00
10014;BME280;45684;48.358;10.746;2023-03-20T03:02:04;96384.06;;;9.79;100.00
10014;BME280;45684;48.358;10.746;2023-03-20T03:04:35;96387.28;;;9.81;100.00
10014;BME280;45684;48.358;10.746;2023-03-20T03:07:06;96387.97;;;9.86;100.00
10014;BME280;45684;48.358;10.746;2023-03-20T03:09:41;96389.19;;;9.80;100.00
10014;BME280;45684;48.358;10.746;2023-03-20T03:12:15;96388.56;;;9.83;100.00
10014;BME280;45684;48.358;10.746;2023-03-20T03:14:46;96391.81;;;9.71;100.00
10014;BME280;45684;48.358;10.746;2023-03-20T03:17:17;96404.22;;;9.73;100.00
10014;BME280;45684;48.358;10.746;2023-03-20T03:19:49;96398.53;;;9.60;100.00
10014;BME280;45684;48.358;10.746;2023-03-20T03:22:19;96398.47;;;9.52;100.00
10014;BME280;45684;48.358;10.746;2023-03-20T03:24:50;96410.44;;;9.59;100.00
10014;BME280;45684;48.358;10.746;2023-03-20T03:27:23;96407.25;;;9.57;100.00
10014;BME280;45684;48.358;10.746;2023-03-20T03:29:55;96415.47;;;9.52;100.00
10014;BME280;45684;48.358;10.746;2023-03-20T03:32:28;96414.03;;;9.55;100.00
10014;BME280;45684;48.358;10.746;2023-03-20T03:34:57;96408.97;;;9.53;100.00
10014;BME280;45684;48.358;10.746;2023-03-20T03:37:38;96410.19;;;9.47;100.00
10014;BME280;45684;48.358;10.746;2023-03-20T03:40:15;96409.19;;;9.43;100.00
10014;BME280;45684;48.358;10.746;2023-03-20T03:42:52;96413.06;;;9.37;100.00
10014;BME280;45684;48.358;10.746;2023-03-20T03:45:26;96415.78;;;9.37;100.00
10014;BME280;45684;48.358;10.746;2023-03-20T03:48:00;96423.28;;;9.40;100.00
10014;BME280;45684;48.358;10.746;2023-03-20T03:50:32;96418.28;;;9.33;100.00
10014;BME280;45684;48.358;10.746;2023-03-20T03:53:07;96419.31;;;9.24;100.00
10014;BME280;45684;48.358;10.746;2023-03-20T03:55:38;96422.06;;;9.18;100.00
10014;BME280;45684;48.358;10.746;2023-03-20T03:58:14;96425.50;;;9.10;100.00
10014;BME280;45684;48.358;10.746;2023-03-20T04:00:45;96433.19;;;9.03;100.00
10014;BME280;45684;48.358;10.746;2023-03-20T04:03:16;96427.78;;;9.03;100.00
10014;BME280;45684;48.358;10.746;2023-03-20T04:05:48;96432.28;;;8.94;100.00
10014;BME280;45684;48.358;10.746;2023-03-20T04:08:18;96429.28;;;8.82;100.00
10014;BME280;45684;48.358;10.746;2023-03-20T04:10:46;96436.66;;;8.76;100.00
10014;BME280;45684;48.358;10.746;2023-03-20T04:13:16;96437.97;;;8.79;100.00
10014;BME280;45684;48.358;10.746;2023-03-20T04:15:43;96440.66;;;8.79;100.00
10014;BME280;45684;48.358;10.746;2023-03-20T04:18:14;96442.56;;;8.78;100.00
10014;BME280;45684;48.358;10.746;2023-03-20T04:20:45;96442.84;;;8.77;100.00
10014;BME280;45684;48.358;10.746;2023-03-20T04:23:14;96443.03;;;8.80;100.00
10014;BME280;45684;48.358;10.746;2023-03-20T04:25:42;96445.63;;;8.85;100.00
10014;BME280;45684;48.358;10.746;2023-03-20T04:28:10;96444.34;;;8.83;100.00
10014;BME280;45684;48.358;10.746;2023-03-20T04:31:09;96446.97;;;8.88;100.00
10014;BME280;45684;48.358;10.746;2023-03-20T04:34:01;96445.38;;;8.87;100.00
10014;BME280;45684;48.358;10.746;2023-03-20T04:36:52;96453.25;;;8.83;100.00
10014;BME280;45684;48.358;10.746;2023-03-20T04:39:24;96454.06;;;8.98;100.00
10014;BME280;45684;48.358;10.746;2023-03-20T04:41:52;96459.75;;;8.96;100.00
10014;BME280;45684;48.358;10.746;2023-03-20T04:44:20;96448.88;;;9.01;100.00
10014;BME280;45684;48.358;10.746;2023-03-20T04:46:49;96461.75;;;9.04;100.00
10014;BME280;45684;48.358;10.746;2023-03-20T04:49:18;96457.88;;;8.97;100.00
10014;BME280;45684;48.358;10.746;2023-03-20T04:51:46;96462.94;;;8.98;100.00
10014;BME280;45684;48.358;10.746;2023-03-20T04:54:20;96464.44;;;9.04;100.00
10014;BME280;45684;48.358;10.746;2023-03-20T04:56:48;96466.97;;;9.01;100.00
10014;BME280;45684;48.358;10.746;2023-03-20T04:59:18;96470.84;;;9.08;100.00
10014;BME280;45684;48.358;10.746;2023-03-20T05:01:46;96474.06;;;9.10;100.00
10014;BME280;45684;48.358;10.746;2023-03-20T05:04:15;96474.84;;;9.11;100.00
10014;BME280;45684;48.358;10.746;2023-03-20T05:06:43;96471.47;;;9.05;100.00
10014;BME280;45684;48.358;10.746;2023-03-20T05:09:16;96470.25;;;9.11;100.00
10014;BME280;45684;48.358;10.746;2023-03-20T05:11:45;96466.44;;;9.12;100.00
10014;BME280;45684;48.358;10.746;2023-03-20T05:14:33;96474.06;;;9.10;100.00
10014;BME280;45684;48.358;10.746;2023-03-20T05:17:20;96478.94;;;9.08;100.00
10014;BME280;45684;48.358;10.746;2023-03-20T05:20:09;96488.25;;;9.16;100.00
10014;BME280;45684;48.358;10.746;2023-03-20T05:22:57;96478.25;;;9.16;100.00
10014;BME280;45684;48.358;10.746;2023-03-20T05:25:44;96487.34;;;9.20;100.00
10014;BME280;45684;48.358;10.746;2023-03-20T05:28:30;96484.06;;;9.10;100.00
10014;BME280;45684;48.358;10.746;2023-03-20T05:31:12;96489.44;;;9.10;100.00
10014;BME280;45684;48.358;10.746;2023-03-20T05:33:54;96491.84;;;9.11;100.00
10014;BME280;45684;48.358;10.746;2023-03-20T05:36:31;96495.63;;;9.10;100.00
10014;BME280;45684;48.358;10.746;2023-03-20T05:39:24;96492.06;;;9.15;100.00
10014;BME280;45684;48.358;10.746;2023-03-20T05:42:10;96491.13;;;9.06;100.00
10014;BME280;45684;48.358;10.746;2023-03-20T05:44:47;96498.91;;;9.07;100.00
10014;BME280;45684;48.358;10.746;2023-03-20T05:47:37;96492.94;;;9.10;100.00
10014;BME280;45684;48.358;10.746;2023-03-20T05:50:22;96498.34;;;9.10;100.00
10014;BME280;45684;48.358;10.746;2023-03-20T05:53:07;96496.81;;;9.18;100.00
10014;BME280;45684;48.358;10.746;2023-03-20T05:55:58;96497.03;;;9.22;100.00
10014;BME280;45684;48.358;10.746;2023-03-20T05:58:29;96506.72;;;9.23;100.00
10014;BME280;45684;48.358;10.746;2023-03-20T06:01:16;96509.41;;;9.23;100.00
10014;BME280;45684;48.358;10.746;2023-03-20T06:04:03;96507.63;;;9.32;100.00
10014;BME280;45684;48.358;10.746;2023-03-20T06:06:50;96505.94;;;9.36;100.00
10014;BME280;45684;48.358;10.746;2023-03-20T06:09:19;96503.25;;;9.36;100.00
10014;BME280;45684;48.358;10.746;2023-03-20T06:11:47;96508.03;;;9.39;100.00
10014;BME280;45684;48.358;10.746;2023-03-20T06:14:16;96501.53;;;9.40;100.00
10014;BME280;45684;48.358;10.746;2023-03-20T06:16:50;96506.63;;;9.41;100.00
10014;BME280;45684;48.358;10.746;2023-03-20T06:19:20;96502.13;;;9.37;100.00
10014;BME280;45684;48.358;10.746;2023-03-20T06:21:48;96512.66;;;9.38;100.00
10014;BME280;45684;48.358;10.746;2023-03-20T06:24:21;96506.63;;;9.41;100.00
10014;BME280;45684;48.358;10.746;2023-03-20T06:26:49;96514.44;;;9.43;100.00
10014;BME280;45684;48.358;10.746;2023-03-20T06:29:17;96513.13;;;9.54;100.00
10014;BME280;45684;48.358;10.746;2023-03-20T06:31:47;96518.22;;;9.56;100.00
10014;BME280;45684;48.358;10.746;2023-03-20T06:34:22;96506.44;;;9.65;100.00
10014;BME280;45684;48.358;10.746;2023-03-20T06:36:50;96508.72;;;9.72;100.00
10014;BME280;45684;48.358;10.746;2023-03-20T06:39:23;96519.09;;;9.79;100.00
10014;BME280;45684;48.358;10.746;2023-03-20T06:41:51;96517.13;;;9.84;100.00
10014;BME280;45684;48.358;10.746;2023-03-20T06:44:22;96511.50;;;9.94;100.00
10014;BME280;45684;48.358;10.746;2023-03-20T06:47:02;96524.19;;;10.08;100.00
10014;BME280;45684;48.358;10.746;2023-03-20T06:49:30;96526.94;;;10.16;100.00
10014;BME280;45684;48.358;10.746;2023-03-20T06:51:58;96531.56;;;10.16;100.00
10014;BME280;45684;48.358;10.746;2023-03-20T06:54:27;96533.97;;;10.17;100.00
10014;BME280;45684;48.358;10.746;2023-03-20T06:56:56;96531.44;;;10.35;100.00
10014;BME280;45684;48.358;10.746;2023-03-20T06:59:24;96531.13;;;10.36;100.00
10014;BME280;45684;48.358;10.746;2023-03-20T07:01:55;96532.28;;;10.44;100.00
10014;BME280;45684;48.358;10.746;2023-03-20T07:04:24;96533.03;;;10.58;100.00
10014;BME280;45684;48.358;10.746;2023-03-20T07:06:56;96527.53;;;10.63;100.00
10014;BME280;45684;48.358;10.746;2023-03-20T07:09:26;96535.47;;;10.60;100.00
10014;BME280;45684;48.358;10.746;2023-03-20T07:11:54;96526.44;;;10.64;100.00
10014;BME280;45684;48.358;10.746;2023-03-20T07:14:22;96527.09;;;10.70;100.00
10014;BME280;45684;48.358;10.746;2023-03-20T07:16:55;96541.81;;;10.78;100.00
10014;BME280;45684;48.358;10.746;2023-03-20T07:19:23;96541.53;;;10.88;100.00
10014;BME280;45684;48.358;10.746;2023-03-20T07:21:58;96545.44;;;11.04;100.00
10014;BME280;45684;48.358;10.746;2023-03-20T07:24:35;96547.31;;;10.95;100.00
10014;BME280;45684;48.358;10.746;2023-03-20T07:27:03;96547.69;;;10.80;100.00
10014;BME280;45684;48.358;10.746;2023-03-20T07:29:32;96555.13;;;10.96;100.00
10014;BME280;45684;48.358;10.746;2023-03-20T07:32:03;96563.91;;;11.02;100.00
10014;BME280;45684;48.358;10.746;2023-03-20T07:34:37;96557.75;;;11.10;100.00
10014;BME280;45684;48.358;10.746;2023-03-20T07:37:06;96561.78;;;11.21;100.00
10014;BME280;45684;48.358;10.746;2023-03-20T07:39:36;96562.56;;;11.44;100.00
10014;BME280;45684;48.358;10.746;2023-03-20T07:42:30;96565.16;;;11.58;100.00
10014;BME280;45684;48.358;10.746;2023-03-20T07:45:06;96572.78;;;11.56;100.00
10014;BME280;45684;48.358;10.746;2023-03-20T07:47:35;96561.38;;;11.68;100.00
10014;BME280;45684;48.358;10.746;2023-03-20T07:50:04;96568.81;;;11.54;100.00
10014;BME280;45684;48.358;10.746;2023-03-20T07:52:34;96561.34;;;11.59;100.00
10014;BME280;45684;48.358;10.746;2023-03-20T07:55:03;96565.25;;;11.44;100.00
10014;BME280;45684;48.358;10.746;2023-03-20T07:57:32;96558.69;;;11.77;100.00
10014;BME280;45684;48.358;10.746;2023-03-20T08:00:00;96560.56;;;11.67;100.00
10014;BME280;45684;48.358;10.746;2023-03-20T08:02:37;96568.47;;;11.55;100.00
10014;BME280;45684;48.358;10.746;2023-03-20T08:05:05;96558.47;;;11.64;100.00
10014;BME280;45684;48.358;10.746;2023-03-20T08:07:33;96558.56;;;11.82;100.00
10014;BME280;45684;48.358;10.746;2023-03-20T08:10:04;96558.66;;;12.08;100.00
10014;BME280;45684;48.358;10.746;2023-03-20T08:12:31;96554.63;;;11.96;100.00
10014;BME280;45684;48.358;10.746;2023-03-20T08:14:59;96554.84;;;12.26;100.00
10014;BME280;45684;48.358;10.746;2023-03-20T08:17:27;96563.97;;;12.39;100.00
10014;BME280;45684;48.358;10.746;2023-03-20T08:19:55;96554.03;;;12.17;100.00
10014;BME280;45684;48.358;10.746;2023-03-20T08:22:23;96558.84;;;12.29;100.00
10014;BME280;45684;48.358;10.746;2023-03-20T08:24:50;96550.72;;;12.29;100.00
10014;BME280;45684;48.358;10.746;2023-03-20T08:27:20;96550.38;;;12.21;100.00
10014;BME280;45684;48.358;10.746;2023-03-20T08:29:48;96552.25;;;11.95;100.00
10014;BME280;45684;48.358;10.746;2023-03-20T08:32:15;96554.47;;;12.02;100.00
10014;BME280;45684;48.358;10.746;2023-03-20T08:34:43;96555.50;;;12.23;100.00
10014;BME280;45684;48.358;10.746;2023-03-20T08:37:14;96554.06;;;12.43;100.00
10014;BME280;45684;48.358;10.746;2023-03-20T08:39:43;96554.22;;;12.38;100.00
10014;BME280;45684;48.358;10.746;2023-03-20T08:42:11;96560.13;;;12.48;100.00
10014;BME280;45684;48.358;10.746;2023-03-20T08:44:40;96562.03;;;12.39;100.00
10014;BME280;45684;48.358;10.746;2023-03-20T08:47:08;96563.63;;;12.23;100.00
10014;BME280;45684;48.358;10.746;2023-03-20T08:49:37;96562.84;;;12.22;100.00
10014;BME280;45684;48.358;10.746;2023-03-20T08:52:05;96566.84;;;12.42;100.00
10014;BME280;45684;48.358;10.746;2023-03-20T08:54:33;96569.25;;;12.79;100.00
10014;BME280;45684;48.358;10.746;2023-03-20T08:57:01;96567.91;;;13.28;100.00
10014;BME280;45684;48.358;10.746;2023-03-20T08:59:29;96575.97;;;13.63;100.00
10014;BME280;45684;48.358;10.746;2023-03-20T09:01:59;96574.66;;;13.69;100.00
10014;BME280;45684;48.358;10.746;2023-03-20T09:04:27;96591.16;;;13.64;97.37
10014;BME280;45684;48.358;10.746;2023-03-20T09:06:55;96582.94;;;13.34;94.14
10014;BME280;45684;48.358;10.746;2023-03-20T09:09:23;96567.72;;;13.33;96.70
10014;BME280;45684;48.358;10.746;2023-03-20T09:11:55;96566.50;;;13.22;97.73
10014;BME280;45684;48.358;10.746;2023-03-20T09:14:23;96567.09;;;13.19;98.26
10014;BME280;45684;48.358;10.746;2023-03-20T09:16:52;96563.94;;;13.08;97.20
10014;BME280;45684;48.358;10.746;2023-03-20T09:19:22;96565.34;;;13.32;96.84
10014;BME280;45684;48.358;10.746;2023-03-20T09:21:50;96569.09;;;13.57;95.16
10014;BME280;45684;48.358;10.746;2023-03-20T09:24:17;96577.56;;;13.64;92.58
10014;BME280;45684;48.358;10.746;2023-03-20T09:26:45;96570.00;;;13.69;91.18
10014;BME280;45684;48.358;10.746;2023-03-20T09:29:13;96565.00;;;13.42;93.97
10014;BME280;45684;48.358;10.746;2023-03-20T09:31:41;96566.91;;;13.50;91.14
10014;BME280;45684;48.358;10.746;2023-03-20T09:34:09;96566.97;;;13.24;91.41
10014;BME280;45684;48.358;10.746;2023-03-20T09:36:38;96570.78;;;13.32;89.37
10014;BME280;45684;48.358;10.746;2023-03-20T09:39:06;96569.75;;;13.62;86.54
10014;BME280;45684;48.358;10.746;2023-03-20T09:41:34;96568.69;;;14.14;86.10
10014;BME280;45684;48.358;10.746;2023-03-20T09:44:33;96567.16;;;14.54;81.46
10014;BME280;45684;48.358;10.746;2023-03-20T09:47:12;96567.16;;;14.75;76.74
10014;BME280;45684;48.358;10.746;2023-03-20T09:49:54;96565.81;;;15.02;78.47
10014;BME280;45684;48.358;10.746;2023-03-20T09:52:27;96556.00;;;14.89;77.55
10014;BME280;45684;48.358;10.746;2023-03-20T09:55:00;96566.94;;;14.39;77.87
10014;BME280;45684;48.358;10.746;2023-03-20T09:57:34;96568.31;;;14.24;77.48
10014;BME280;45684;48.358;10.746;2023-03-20T10:00:06;96564.13;;;14.26;76.05
10014;BME280;45684;48.358;10.746;2023-03-20T10:02:44;96561.69;;;14.34;76.66
10014;BME280;45684;48.358;10.746;2023-03-20T10:05:20;96556.88;;;14.30;75.74
10014;BME280;45684;48.358;10.746;2023-03-20T10:07:53;96567.97;;;14.25;75.94
10014;BME280;45684;48.358;10.746;2023-03-20T10:10:26;96562.97;;;14.07;79.04
10014;BME280;45684;48.358;10.746;2023-03-20T10:13:07;96557.63;;;14.19;80.25
10014;BME280;45684;48.358;10.746;2023-03-20T10:15:48;96562.06;;;14.23;80.57
10014;BME280;45684;48.358;10.746;2023-03-20T10:18:23;96558.69;;;13.97;81.06
10014;BME280;45684;48.358;10.746;2023-03-20T10:20:56;96558.88;;;13.92;77.80
10014;BME280;45684;48.358;10.746;2023-03-20T10:23:34;96552.72;;;13.74;78.75
10014;BME280;45684;48.358;10.746;2023-03-20T10:26:06;96554.66;;;14.03;78.08
10014;BME280;45684;48.358;10.746;2023-03-20T10:28:40;96554.69;;;14.74;74.80
10014;BME280;45684;48.358;10.746;2023-03-20T10:31:32;96550.81;;;15.42;69.29
10014;BME280;45684;48.358;10.746;2023-03-20T10:34:19;96548.28;;;15.94;66.15
10014;BME280;45684;48.358;10.746;2023-03-20T10:37:02;96556.69;;;16.01;62.19
10014;BME280;45684;48.358;10.746;2023-03-20T10:39:51;96552.78;;;15.53;64.61
10014;BME280;45684;48.358;10.746;2023-03-20T10:42:26;96552.78;;;15.53;67.13
10014;BME280;45684;48.358;10.746;2023-03-20T10:45:06;96553.78;;;15.61;67.12
10014;BME280;45684;48.358;10.746;2023-03-20T10:47:39;96551.34;;;15.68;65.80
10014;BME280;45684;48.358;10.746;2023-03-20T10:50:13;96555.72;;;15.48;64.79
10014;BME280;45684;48.358;10.746;2023-03-20T10:52:46;96555.53;;;15.20;64.42
10014;BME280;45684;48.358;10.746;2023-03-20T10:55:23;96547.09;;;14.80;67.54
10014;BME280;45684;48.358;10.746;2023-03-20T10:57:57;96551.25;;;14.65;66.87
10014;BME280;45684;48.358;10.746;2023-03-20T11:00:34;96555.66;;;14.49;69.08
10014;BME280;45684;48.358;10.746;2023-03-20T11:03:06;96547.47;;;13.98;70.94
10014;BME280;45684;48.358;10.746;2023-03-20T11:05:43;96544.72;;;14.07;71.85
10014;BME280;45684;48.358;10.746;2023-03-20T11:08:36;96548.31;;;14.20;71.23
10014;BME280;45684;48.358;10.746;2023-03-20T11:11:10;96545.66;;;14.11;72.70
10014;BME280;45684;48.358;10.746;2023-03-20T11:13:41;96545.88;;;14.27;75.51
10014;BME280;45684;48.358;10.746;2023-03-20T11:16:19;96551.25;;;14.65;70.92
10014;BME280;45684;48.358;10.746;2023-03-20T11:18:52;96548.09;;;14.75;67.46
10014;BME280;45684;48.358;10.746;2023-03-20T11:21:22;96540.72;;;14.76;64.03
10014;BME280;45684;48.358;10.746;2023-03-20T11:23:52;96540.94;;;14.71;65.14
10014;BME280;45684;48.358;10.746;2023-03-20T11:26:34;96549.63;;;14.85;62.13
10014;BME280;45684;48.358;10.746;2023-03-20T11:29:06;96546.97;;;15.10;63.14
10014;BME280;45684;48.358;10.746;2023-03-20T11:31:39;96550.34;;;14.94;60.12
10014;BME280;45684;48.358;10.746;2023-03-20T11:34:20;96543.50;;;14.88;63.48
10014;BME280;45684;48.358;10.746;2023-03-20T11:36:55;96538.44;;;14.99;60.48
10014;BME280;45684;48.358;10.746;2023-03-20T11:39:37;96544.94;;;15.07;61.61
10014;BME280;45684;48.358;10.746;2023-03-20T11:42:24;96546.75;;;15.15;58.81
10014;BME280;45684;48.358;10.746;2023-03-20T11:44:58;96542.53;;;15.05;57.70
10014;BME280;45684;48.358;10.746;2023-03-20T11:47:30;96544.38;;;15.13;56.96
10014;BME280;45684;48.358;10.746;2023-03-20T11:50:00;96535.81;;;15.36;57.54
10014;BME280;45684;48.358;10.746;2023-03-20T11:52:33;96545.13;;;15.47;54.47
10014;BME280;45684;48.358;10.746;2023-03-20T11:55:05;96542.03;;;16.18;53.87
10014;BME280;45684;48.358;10.746;2023-03-20T11:57:46;96538.94;;;16.07;50.04
10014;BME280;45684;48.358;10.746;2023-03-20T12:00:20;96531.59;;;15.96;51.43
10014;BME280;45684;48.358;10.746;2023-03-20T12:02:50;96532.00;;;16.22;50.31
10014;BME280;45684;48.358;10.746;2023-03-20T12:05:30;96527.44;;;16.26;48.24
10014;BME280;45684;48.358;10.746;2023-03-20T12:08:01;96525.34;;;16.48;48.84
10014;BME280;45684;48.358;10.746;2023-03-20T12:10:36;96534.75;;;16.75;46.64
10014;BME280;45684;48.358;10.746;2023-03-20T12:13:15;96533.69;;;16.39;46.85
10014;BME280;45684;48.358;10.746;2023-03-20T12:15:49;96535.53;;;16.23;47.09
10014;BME280;45684;48.358;10.746;2023-03-20T12:18:25;96535.44;;;15.82;48.95
10014;BME280;45684;48.358;10.746;2023-03-20T12:21:09;96531.56;;;15.71;51.21
10014;BME280;45684;48.358;10.746;2023-03-20T12:23:42;96522.84;;;15.78;49.04
10014;BME280;45684;48.358;10.746;2023-03-20T12:26:21;96521.06;;;15.37;51.30
10014;BME280;45684;48.358;10.746;2023-03-20T12:28:57;96520.88;;;15.09;53.84
10014;BME280;45684;48.358;10.746;2023-03-20T12:31:33;96530.53;;;15.18;52.47
10014;BME280;45684;48.358;10.746;2023-03-20T12:34:08;96515.09;;;15.10;54.36
10014;BME280;45684;48.358;10.746;2023-03-20T12:36:41;96522.00;;;15.08;56.83
10014;BME280;45684;48.358;10.746;2023-03-20T12:39:13;96518.59;;;14.77;57.16
10014;BME280;45684;48.358;10.746;2023-03-20T12:41:52;96517.59;;;14.82;63.12
10014;BME280;45684;48.358;10.746;2023-03-20T12:44:34;96523.53;;;14.84;57.44
10014;BME280;45684;48.358;10.746;2023-03-20T12:47:26;96516.78;;;14.69;59.29
10014;BME280;45684;48.358;10.746;2023-03-20T12:50:04;96524.78;;;14.45;60.15
10014;BME280;45684;48.358;10.746;2023-03-20T12:52:43;96515.97;;;14.27;62.88
10014;BME280;45684;48.358;10.746;2023-03-20T12:55:35;96516.22;;;14.34;65.06
10014;BME280;45684;48.358;10.746;2023-03-20T12:58:17;96523.84;;;14.41;64.49
10014;BME280;45684;48.358;10.746;2023-03-20T13:00:50;96515.56;;;14.37;65.76
10014;BME280;45684;48.358;10.746;2023-03-20T13:06:31;96510.69;;;14.22;67.83
10014;BME280;45684;48.358;10.746;2023-03-20T13:09:23;96516.41;;;14.29;68.06
10014;BME280;45684;48.358;10.746;2023-03-20T13:12:00;96516.13;;;14.22;69.98
10014;BME280;45684;48.358;10.746;2023-03-20T13:14:37;96508.72;;;14.31;71.05
10014;BME280;45684;48.358;10.746;2023-03-20T13:17:15;96507.25;;;14.34;70.01
10014;BME280;45684;48.358;10.746;2023-03-20T13:19:52;96515.63;;;14.28;68.74
10014;BME280;45684;48.358;10.746;2023-03-20T13:22:26;96508.34;;;14.41;71.49
10014;BME280;45684;48.358;10.746;2023-03-20T13:25:01;96504.97;;;14.65;66.76
10014;BME280;45684;48.358;10.746;2023-03-20T13:27:36;96508.09;;;14.55;65.54
10014;BME280;45684;48.358;10.746;2023-03-20T13:30:27;96504.25;;;14.56;63.29
10014;BME280;45684;48.358;10.746;2023-03-20T13:33:15;96501.69;;;14.72;63.35